Terminal Aerodrome Forecast
Issued by NWS Greer, SC

Home | Current Version | Previous Version | Text Only | Print | Product List | Glossary On
Versions: 1 2 3 4 5 6 7 8 9 10 11 12 13 14 15 16 17 18 19 20 21 22 23 24 25 26 27 28 29 30 31 32 33 34 35 36 37 38 39 40 41 42 43 44 45 46 47 48 49 50
000
FTUS42 KGSP 141135
TAFCLT
TAF
KCLT 141135Z 1412/1518 20005KT P6SM SCT003 BKN060
      TEMPO 1412/1415 5SM BR BKN003 OVC060
     FM141500 25011KT P6SM BKN025
     FM141700 25011G19KT P6SM BKN060
     FM142300 28009KT P6SM SCT250
     FM150500 25005KT P6SM SKC=

USA.gov is the U.S. government's official web portal to all federal, state and local government web resources and services.